createdAt,value
2023-11-21T07:01:01.867Z,99893.41
2023-11-21T07:04:05.182Z,99892.66
2023-11-21T07:07:08.418Z,99885.59
2023-11-21T07:10:11.260Z,99878.94
2023-11-21T07:13:13.684Z,99886.25
2023-11-21T07:16:17.979Z,99888.28
2023-11-21T07:19:20.923Z,99891.50
2023-11-21T07:22:23.639Z,99892.34
2023-11-21T07:25:26.134Z,99890.25
2023-11-21T07:28:28.888Z,99887.53
2023-11-21T07:31:35.498Z,99897.88
2023-11-21T07:34:38.382Z,99896.94
2023-11-21T07:37:40.912Z,99896.16
2023-11-21T07:40:43.700Z,99895.34
2023-11-21T07:43:46.409Z,99893.72
2023-11-21T07:46:53.143Z,99892.47
2023-11-21T07:49:57.260Z,99891.09
2023-11-21T07:53:00.713Z,99905.12
2023-11-21T07:56:04.343Z,99904.25
2023-11-21T07:59:07.065Z,99902.16
2023-11-21T08:02:10.944Z,99902.06
2023-11-21T08:05:18.959Z,99900.38
2023-11-21T08:08:28.670Z,99908.22
2023-11-21T08:11:33.443Z,99911.69
2023-11-21T08:14:40.023Z,99900.88
2023-11-21T08:17:44.580Z,99896.06
2023-11-21T08:20:48.719Z,99884.09
2023-11-21T08:23:55.407Z,99888.09
2023-11-21T08:26:58.020Z,99888.69
2023-11-21T08:30:01.143Z,99885.41
2023-11-21T08:33:05.082Z,99885.69
2023-11-21T08:36:08.820Z,99880.25
2023-11-21T08:39:11.383Z,99886.72
2023-11-21T08:42:14.266Z,99887.09
2023-11-21T08:45:18.500Z,99885.69
2023-11-21T08:48:22.703Z,99880.13
2023-11-21T08:51:24.983Z,99883.12
2023-11-21T08:54:27.606Z,99888.41
2023-11-21T08:57:30.963Z,99882.66
2023-11-21T09:00:34.153Z,99885.41
2023-11-21T09:03:38.595Z,99884.06
2023-11-21T09:06:41.452Z,99886.53
2023-11-21T09:09:43.922Z,99888.03
2023-11-21T09:12:46.713Z,99890.44
2023-11-21T09:15:50.956Z,99885.47
2023-11-21T09:18:55.062Z,99887.00
2023-11-21T09:21:58.397Z,99880.00
2023-11-21T09:25:01.084Z,99891.00
2023-11-21T09:28:06.094Z,99885.78
2023-11-21T09:31:10.572Z,99871.44
2023-11-21T09:34:17.967Z,99871.84
2023-11-21T09:37:20.796Z,99868.12
2023-11-21T09:40:23.824Z,99866.69
2023-11-21T09:43:28.702Z,99860.94
2023-11-21T09:46:31.850Z,99861.19
2023-11-21T09:49:35.980Z,99854.88
2023-11-21T09:52:42.352Z,99860.38
2023-11-21T09:55:46.188Z,99858.72
2023-11-21T09:58:48.757Z,99855.06
2023-11-21T10:01:53.185Z,99859.44
2023-11-21T10:04:57.937Z,99847.56
2023-11-21T10:08:00.507Z,99838.53
2023-11-21T10:11:03.606Z,99827.50
2023-11-21T10:14:06.131Z,99822.53
2023-11-21T10:17:10.401Z,99831.16
2023-11-21T10:20:14.674Z,99835.44
2023-11-21T10:23:17.437Z,99843.47
2023-11-21T10:26:29.282Z,99838.91
2023-11-21T10:29:36.737Z,99840.44
2023-11-21T10:32:39.305Z,99832.03
2023-11-21T10:35:52.032Z,99837.44
2023-11-21T10:38:54.663Z,99839.06
2023-11-21T10:41:57.517Z,99834.94
2023-11-21T10:45:01.785Z,99829.28
2023-11-21T10:48:06.484Z,99822.53
2023-11-21T10:51:13.415Z,99824.44
2023-11-21T10:54:19.032Z,99835.72
2023-11-21T10:57:23.072Z,99831.72
2023-11-21T11:00:25.942Z,99832.41
2023-11-21T11:03:28.506Z,99834.06
2023-11-21T11:06:33.917Z,99828.81
2023-11-21T11:09:36.482Z,99824.13
2023-11-21T11:12:39.608Z,99826.31
2023-11-21T11:15:42.320Z,99824.63
2023-11-21T11:18:46.123Z,99824.19
2023-11-21T11:21:55.013Z,99815.19
2023-11-21T11:25:20.056Z,99815.47
2023-11-21T11:28:23.005Z,99820.63
2023-11-21T11:31:28.752Z,99819.63
2023-11-21T11:34:32.921Z,99808.78
2023-11-21T11:37:37.222Z,99804.59
2023-11-21T11:40:39.971Z,99806.00
2023-11-21T11:43:45.884Z,99803.13
2023-11-21T11:46:48.688Z,99806.00
2023-11-21T11:50:20.969Z,99799.75
2023-11-21T11:53:24.890Z,99798.22
2023-11-21T11:56:29.508Z,99799.94
2023-11-21T11:59:31.917Z,99798.22
2023-11-21T12:02:34.737Z,99797.94
2023-11-21T12:05:40.278Z,99804.72
2023-11-21T12:08:45.726Z,99800.63
2023-11-21T12:11:48.526Z,99801.91
2023-11-21T12:14:50.996Z,99789.63
2023-11-21T12:17:53.740Z,99782.59
2023-11-21T12:20:56.388Z,99779.22
2023-11-21T12:24:01.296Z,99795.28
2023-11-21T12:27:04.279Z,99793.63
2023-11-21T12:30:14.284Z,99796.25
2023-11-21T12:33:18.821Z,99793.03
2023-11-21T12:36:22.676Z,99788.37
2023-11-21T12:39:26.480Z,99789.50
2023-11-21T12:42:31.985Z,99778.47
2023-11-21T12:45:35.110Z,99780.09
2023-11-21T12:48:38.635Z,99772.94
2023-11-21T12:51:41.066Z,99778.19
2023-11-21T12:54:45.134Z,99777.59
2023-11-21T12:57:51.035Z,99778.69
2023-11-21T13:00:55.176Z,99771.72
2023-11-21T13:03:58.054Z,99776.81
2023-11-21T13:07:07.792Z,99782.75
2023-11-21T13:10:11.688Z,99776.38
2023-11-21T13:13:19.821Z,99777.66
2023-11-21T13:16:24.992Z,99772.41
2023-11-21T13:19:30.853Z,99779.59
2023-11-21T13:22:34.241Z,99773.88
2023-11-21T13:25:38.850Z,99776.75
2023-11-21T13:28:46.907Z,99773.37
2023-11-21T13:31:51.909Z,99784.47
2023-11-21T13:34:55.402Z,99772.34
2023-11-21T13:38:00.964Z,99765.41
2023-11-21T13:41:08.615Z,99778.19
2023-11-21T13:44:27.312Z,99774.56
2023-11-21T13:47:32.179Z,99779.22
2023-11-21T13:50:35.015Z,99774.56
2023-11-21T13:53:38.822Z,99783.44
2023-11-21T13:56:46.262Z,99779.34
2023-11-21T13:59:50.219Z,99775.16
2023-11-21T14:02:52.929Z,99776.75
2023-11-21T14:05:57.584Z,99776.78
2023-11-21T14:09:01.775Z,99772.75
2023-11-21T14:12:08.953Z,99771.38
2023-11-21T14:15:13.400Z,99779.94
2023-11-21T14:18:18.248Z,99781.19
2023-11-21T14:21:20.735Z,99795.53
2023-11-21T14:24:25.214Z,99792.97
2023-11-21T14:27:29.946Z,99783.81
2023-11-21T14:30:37.197Z,99781.63
2023-11-21T14:33:39.620Z,99786.22
2023-11-21T14:36:44.107Z,99790.56
2023-11-21T14:39:49.878Z,99795.09
2023-11-21T14:42:55.468Z,99795.84
2023-11-21T14:45:58.574Z,99795.37
2023-11-21T14:49:15.699Z,99783.16
2023-11-21T14:52:35.038Z,99792.56
2023-11-21T14:55:53.349Z,99799.34
2023-11-21T14:58:57.817Z,99796.47
2023-11-21T15:02:10.943Z,99792.09
2023-11-21T15:05:17.721Z,99789.06
2023-11-21T15:08:31.480Z,99782.25
2023-11-21T15:11:34.289Z,99783.91
2023-11-21T15:14:38.485Z,99790.22
2023-11-21T15:17:43.997Z,99784.09
2023-11-21T15:20:47.030Z,99786.34
2023-11-21T15:23:49.608Z,99791.66
2023-11-21T15:26:52.365Z,99785.00
2023-11-21T15:29:56.224Z,99791.94
2023-11-21T15:32:59.292Z,99793.91
2023-11-21T15:36:01.823Z,99799.34
2023-11-21T15:39:04.608Z,99795.09
2023-11-21T15:42:11.210Z,99790.22
2023-11-21T15:45:16.192Z,99785.88
2023-11-21T15:48:19.098Z,99791.72
2023-11-21T15:51:21.847Z,99788.66
2023-11-21T15:54:25.833Z,99784.50
2023-11-21T15:57:28.650Z,99793.78
2023-11-21T16:00:32.502Z,99789.19
2023-11-21T16:03:35.426Z,99792.41
2023-11-21T16:06:40.459Z,99789.25
2023-11-21T16:09:44.265Z,99787.03
2023-11-21T16:12:47.535Z,99796.69
2023-11-21T16:15:52.347Z,99795.84
2023-11-21T16:18:54.960Z,99796.03
2023-11-21T16:21:57.688Z,99796.16
2023-11-21T16:25:01.357Z,99794.78
2023-11-21T16:28:05.944Z,99798.62
2023-11-21T16:31:11.366Z,99805.50
2023-11-21T16:34:19.580Z,99799.47
2023-11-21T16:37:22.634Z,99803.59
2023-11-21T16:40:25.765Z,99799.03
2023-11-21T16:43:28.229Z,99802.37
2023-11-21T16:46:32.337Z,99807.47
2023-11-21T16:49:34.688Z,99809.66
2023-11-21T16:52:39.420Z,99815.47
2023-11-21T16:55:41.859Z,99815.75
2023-11-21T16:58:45.007Z,99809.38
